createdAt,value
2023-07-12T00:01:27.400Z,49.65
2023-07-12T00:03:54.730Z,49.40
2023-07-12T00:06:33.600Z,50.10
2023-07-12T00:09:00.302Z,49.85
2023-07-12T00:11:27.143Z,50.29
2023-07-12T00:13:58.605Z,49.95
2023-07-12T00:16:34.645Z,50.86
2023-07-12T00:19:02.169Z,51.91
2023-07-12T00:21:31.024Z,52.42
2023-07-12T00:24:03.275Z,52.15
2023-07-12T00:26:32.718Z,51.89
2023-07-12T00:29:03.716Z,52.53
2023-07-12T00:31:32.580Z,52.35
2023-07-12T00:34:02.119Z,52.47
2023-07-12T00:36:34.144Z,53.35
2023-07-12T00:39:02.947Z,53.58
2023-07-12T00:41:41.898Z,54.53
2023-07-12T00:44:19.866Z,55.19
2023-07-12T00:46:49.902Z,55.65
2023-07-12T00:49:16.871Z,54.84
2023-07-12T00:51:59.655Z,54.72
2023-07-12T00:55:00.455Z,54.38
2023-07-12T00:57:30.363Z,54.47
2023-07-12T01:00:12.756Z,54.86
2023-07-12T01:02:48.807Z,54.56
2023-07-12T01:05:19.557Z,54.92
2023-07-12T01:07:48.769Z,55.21
2023-07-12T01:10:15.587Z,55.11
2023-07-12T01:12:42.273Z,54.09
2023-07-12T01:15:12.002Z,53.16
2023-07-12T01:17:38.755Z,52.87
2023-07-12T01:20:08.960Z,53.51
2023-07-12T01:22:38.264Z,53.72
2023-07-12T01:25:07.307Z,53.57
2023-07-12T01:27:34.403Z,54.17
2023-07-12T01:30:03.521Z,53.34
2023-07-12T01:32:31.887Z,53.22
2023-07-12T01:34:58.682Z,52.97
2023-07-12T01:37:25.718Z,52.98
2023-07-12T01:39:52.398Z,52.98
2023-07-12T01:42:19.042Z,53.10
2023-07-12T01:44:45.750Z,52.62
2023-07-12T01:47:12.380Z,53.38
2023-07-12T01:49:41.252Z,53.23
2023-07-12T01:52:08.556Z,53.16
2023-07-12T01:54:37.372Z,53.20
2023-07-12T01:57:04.518Z,53.81
2023-07-12T01:59:36.606Z,53.57
2023-07-12T02:04:35.508Z,52.83
2023-07-12T02:07:05.618Z,52.54
2023-07-12T02:09:38.759Z,53.37
2023-07-12T02:12:05.974Z,53.02
2023-07-12T02:14:32.646Z,52.92
2023-07-12T02:17:02.094Z,53.29
2023-07-12T02:19:34.703Z,53.62
2023-07-12T02:22:03.974Z,54.05
2023-07-12T02:24:33.670Z,53.43
2023-07-12T02:27:00.366Z,53.80
2023-07-12T02:29:29.223Z,53.52
2023-07-12T02:32:00.666Z,54.22
2023-07-12T02:34:27.569Z,53.67
2023-07-12T02:36:56.989Z,53.62
2023-07-12T02:39:25.998Z,53.58
2023-07-12T02:41:52.857Z,53.69
2023-07-12T02:44:19.534Z,53.62
2023-07-12T02:46:46.183Z,53.71
2023-07-12T02:49:17.047Z,54.08
2023-07-12T02:51:44.476Z,54.32
2023-07-12T02:54:16.400Z,54.96
2023-07-12T02:56:45.421Z,55.05
2023-07-12T02:59:12.138Z,55.27
2023-07-12T03:01:39.043Z,54.77
2023-07-12T03:04:07.987Z,54.86
2023-07-12T03:06:37.675Z,55.16
2023-07-12T03:09:06.427Z,55.16
2023-07-12T03:11:35.774Z,55.74
2023-07-12T03:14:03.139Z,56.01
2023-07-12T03:16:32.993Z,56.45
2023-07-12T03:19:02.950Z,56.09
2023-07-12T03:21:29.823Z,56.39
2023-07-12T03:23:56.521Z,56.15
2023-07-12T03:26:27.410Z,55.68
2023-07-12T03:28:54.121Z,55.99
2023-07-12T03:31:20.962Z,56.44
2023-07-12T03:33:48.078Z,56.50
2023-07-12T03:36:25.940Z,56.61
2023-07-12T03:38:53.837Z,56.06
2023-07-12T03:41:24.481Z,56.11
2023-07-12T03:43:53.712Z,56.88
2023-07-12T03:46:25.750Z,56.86
2023-07-12T03:48:52.778Z,56.45
2023-07-12T03:51:23.960Z,56.08
2023-07-12T03:53:53.371Z,56.18
2023-07-12T03:56:20.212Z,56.93
2023-07-12T03:58:51.698Z,56.88
2023-07-12T04:01:19.429Z,56.86
2023-07-12T04:03:48.666Z,56.53
2023-07-12T04:06:15.817Z,56.94
2023-07-12T04:08:42.573Z,56.66
2023-07-12T04:11:25.523Z,56.47
2023-07-12T04:13:54.863Z,56.41
2023-07-12T04:16:27.840Z,56.31
2023-07-12T04:18:59.421Z,56.67
2023-07-12T04:21:26.568Z,56.42
2023-07-12T04:23:55.947Z,56.46
2023-07-12T04:26:25.790Z,56.92
2023-07-12T04:28:53.213Z,57.60
2023-07-12T04:31:23.485Z,57.12
2023-07-12T04:33:53.679Z,57.56
2023-07-12T04:36:20.792Z,57.53
2023-07-12T04:38:50.319Z,56.17
2023-07-12T04:41:18.321Z,56.09
2023-07-12T04:43:45.108Z,55.84
2023-07-12T04:46:11.989Z,55.65
2023-07-12T04:48:38.658Z,56.27
2023-07-12T04:51:08.323Z,55.48
2023-07-12T04:53:37.864Z,55.23
2023-07-12T04:56:05.189Z,56.03
2023-07-12T04:58:34.627Z,55.98
2023-07-12T05:01:03.372Z,56.78
2023-07-12T05:03:33.480Z,56.75
2023-07-12T05:06:13.650Z,56.78
2023-07-12T05:08:51.813Z,56.86
2023-07-12T05:11:18.981Z,57.46
2023-07-12T05:13:48.097Z,57.47
2023-07-12T05:16:14.910Z,57.94
2023-07-12T05:18:42.107Z,57.72
2023-07-12T05:21:10.659Z,56.66
2023-07-12T05:23:38.540Z,56.70
2023-07-12T05:26:05.166Z,56.77
2023-07-12T05:28:36.454Z,55.98
2023-07-12T05:31:13.922Z,56.59
2023-07-12T05:33:47.696Z,55.84
2023-07-12T05:36:15.570Z,56.25
2023-07-12T05:38:42.919Z,55.57
2023-07-12T05:41:14.877Z,57.25
2023-07-12T05:43:42.782Z,56.50
2023-07-12T05:46:09.681Z,54.45
2023-07-12T05:48:41.449Z,55.68
2023-07-12T05:51:09.752Z,55.91
2023-07-12T05:53:36.776Z,53.32
2023-07-12T05:56:07.860Z,53.68
2023-07-12T05:58:36.504Z,53.23
2023-07-12T06:01:04.358Z,57.29
2023-07-12T06:03:33.910Z,53.26
2023-07-12T06:06:01.393Z,56.26
2023-07-12T06:08:30.857Z,53.24
2023-07-12T06:10:57.516Z,53.41
2023-07-12T06:13:24.315Z,51.53
2023-07-12T06:15:53.469Z,52.90
2023-07-12T06:18:22.735Z,51.91
2023-07-12T06:20:56.382Z,52.78
2023-07-12T06:23:23.044Z,52.75
2023-07-12T06:25:49.906Z,54.44
2023-07-12T06:28:18.725Z,51.22
2023-07-12T06:30:47.883Z,50.93
2023-07-12T06:33:16.903Z,53.24
2023-07-12T06:35:48.428Z,52.04
2023-07-12T06:38:18.492Z,51.55
2023-07-12T06:40:46.777Z,52.20
2023-07-12T06:43:15.776Z,51.26
2023-07-12T06:45:46.300Z,50.06
2023-07-12T06:48:15.619Z,51.19
2023-07-12T06:50:47.830Z,51.50
2023-07-12T06:53:14.423Z,50.49
2023-07-12T06:55:46.791Z,52.44
2023-07-12T06:58:16.472Z,50.86
2023-07-12T07:00:44.818Z,51.25
2023-07-12T07:03:13.640Z,51.14
2023-07-12T07:05:42.251Z,51.70
2023-07-12T07:08:09.042Z,51.29
2023-07-12T07:10:36.152Z,50.29
2023-07-12T07:13:02.839Z,50.83
2023-07-12T07:15:32.008Z,49.77
2023-07-12T07:18:05.751Z,48.23
2023-07-12T07:20:33.164Z,50.08
2023-07-12T07:23:00.342Z,49.31
2023-07-12T07:25:29.485Z,49.21
2023-07-12T07:27:59.619Z,49.34
2023-07-12T07:30:29.304Z,48.71
2023-07-12T07:32:58.417Z,50.61
2023-07-12T07:35:27.717Z,49.11
2023-07-12T07:37:57.102Z,48.70
2023-07-12T07:40:23.746Z,49.10
2023-07-12T07:42:53.235Z,48.19
2023-07-12T07:45:19.951Z,48.58
2023-07-12T07:47:46.682Z,48.58
2023-07-12T07:50:16.052Z,47.62
2023-07-12T07:52:42.761Z,47.59
2023-07-12T07:55:11.989Z,47.90
2023-07-12T07:57:40.791Z,47.45
2023-07-12T08:00:11.749Z,47.43
2023-07-12T08:02:39.478Z,47.02
2023-07-12T08:05:09.120Z,47.11
2023-07-12T08:07:47.670Z,47.29
2023-07-12T08:10:19.094Z,45.94
2023-07-12T08:12:49.471Z,45.41
2023-07-12T08:15:19.528Z,45.37
2023-07-12T08:17:48.752Z,45.54
2023-07-12T08:20:16.371Z,46.99
2023-07-12T08:22:43.255Z,45.81
2023-07-12T08:25:12.910Z,46.88
2023-07-12T08:27:45.228Z,46.47
2023-07-12T08:30:15.833Z,45.53
2023-07-12T08:32:44.747Z,46.81
2023-07-12T08:35:13.708Z,46.23
2023-07-12T08:37:42.372Z,46.49
2023-07-12T08:40:14.443Z,46.47
2023-07-12T08:42:45.433Z,46.25
2023-07-12T08:45:18.434Z,44.74
2023-07-12T08:47:47.053Z,44.74
2023-07-12T08:50:15.335Z,44.66
2023-07-12T08:52:43.535Z,45.75
2023-07-12T08:55:15.885Z,45.10
2023-07-12T08:57:43.071Z,44.84
2023-07-12T09:00:20.951Z,45.31
2023-07-12T09:02:50.024Z,45.55
2023-07-12T09:05:20.970Z,45.37
2023-07-12T09:08:03.152Z,46.74
2023-07-12T09:10:46.035Z,44.49
2023-07-12T09:13:16.638Z,44.54
2023-07-12T09:15:56.242Z,44.14
2023-07-12T09:18:35.422Z,44.06
2023-07-12T09:21:16.521Z,42.48
2023-07-12T09:23:45.337Z,42.84
2023-07-12T09:26:21.332Z,42.41
2023-07-12T09:28:48.232Z,41.49
2023-07-12T09:31:21.491Z,44.50
2023-07-12T09:33:56.050Z,41.38
2023-07-12T09:36:22.720Z,42.19
2023-07-12T09:38:49.630Z,41.85
2023-07-12T09:41:21.786Z,41.16
2023-07-12T09:43:59.170Z,42.14
2023-07-12T09:46:32.170Z,40.92
2023-07-12T09:49:10.326Z,41.76
2023-07-12T09:51:45.013Z,41.14
2023-07-12T09:54:39.749Z,41.47
2023-07-12T09:57:41.786Z,41.34
2023-07-12T10:00:17.527Z,43.24
2023-07-12T10:03:24.133Z,43.35
2023-07-12T10:06:01.254Z,42.71
2023-07-12T10:08:42.163Z,44.14
2023-07-12T10:11:23.073Z,43.72
2023-07-12T10:13:58.463Z,43.02
2023-07-12T10:16:35.905Z,42.63
2023-07-12T10:19:24.490Z,41.40
2023-07-12T10:21:53.609Z,41.35
2023-07-12T10:24:25.961Z,42.99
2023-07-12T10:26:56.389Z,41.63
2023-07-12T10:29:31.795Z,41.41
2023-07-12T10:32:06.179Z,42.12
2023-07-12T10:34:35.750Z,41.55
2023-07-12T10:37:15.957Z,41.92
2023-07-12T10:39:53.148Z,40.64
2023-07-12T10:42:43.448Z,39.96
2023-07-12T10:45:26.959Z,40.30
2023-07-12T10:47:55.593Z,40.99
2023-07-12T10:50:44.749Z,40.94
2023-07-12T10:53:36.306Z,41.95
2023-07-12T10:56:09.475Z,41.40
2023-07-12T10:58:52.206Z,40.54
2023-07-12T11:01:46.788Z,40.98
2023-07-12T11:04:16.188Z,40.00
2023-07-12T11:07:02.594Z,42.16
2023-07-12T11:09:49.844Z,39.78
2023-07-12T11:12:31.500Z,39.95
2023-07-12T11:15:06.691Z,39.53
2023-07-12T11:17:55.560Z,39.12
2023-07-12T11:20:25.629Z,38.34
2023-07-12T11:23:00.483Z,39.88
2023-07-12T11:25:45.811Z,37.92
2023-07-12T11:28:21.802Z,38.34
2023-07-12T11:31:12.796Z,40.76
2023-07-12T11:33:46.748Z,38.86
2023-07-12T11:36:26.161Z,39.50
2023-07-12T11:38:55.233Z,39.47
2023-07-12T11:41:27.349Z,39.33
2023-07-12T11:44:02.593Z,38.37
2023-07-12T11:46:37.051Z,38.29
2023-07-12T11:49:18.761Z,38.30
2023-07-12T11:51:49.128Z,39.27
2023-07-12T11:54:26.312Z,40.33
2023-07-12T11:56:57.059Z,39.60
2023-07-12T11:59:32.768Z,39.82
2023-07-12T12:02:00.657Z,40.13
2023-07-12T12:04:32.614Z,40.27
2023-07-12T12:07:08.461Z,39.18
2023-07-12T12:09:39.097Z,38.31
2023-07-12T12:12:08.697Z,39.98
2023-07-12T12:14:41.651Z,38.57
2023-07-12T12:17:16.401Z,37.42
2023-07-12T12:19:50.922Z,38.24
2023-07-12T12:22:26.863Z,37.42
2023-07-12T12:25:00.592Z,37.63
2023-07-12T12:27:38.824Z,37.75
2023-07-12T12:30:32.432Z,37.86
2023-07-12T12:33:26.933Z,38.06
2023-07-12T12:36:01.331Z,39.06
2023-07-12T12:38:36.950Z,38.16
2023-07-12T12:41:20.209Z,37.53
2023-07-12T12:44:09.156Z,37.11
2023-07-12T12:54:30.672Z,37.20
2023-07-12T12:58:11.910Z,38.44
2023-07-12T13:00:31.667Z,36.14
2023-07-12T13:08:44.359Z,37.18
2023-07-12T13:18:27.579Z,39.34
2023-07-12T13:20:54.716Z,40.57
2023-07-12T13:23:37.933Z,39.06
2023-07-12T13:26:13.076Z,38.98
2023-07-12T13:28:39.738Z,39.15
2023-07-12T13:31:11.266Z,39.23
2023-07-12T13:33:40.666Z,38.81
2023-07-12T13:36:26.662Z,39.37
2023-07-12T13:46:31.520Z,38.26
2023-07-12T13:49:00.030Z,40.06
2023-07-12T13:51:29.393Z,38.82
2023-07-12T13:53:56.700Z,38.42
2023-07-12T14:04:23.396Z,37.46
2023-07-12T14:13:25.610Z,36.62
2023-07-12T14:15:52.660Z,34.80
2023-07-12T14:18:21.741Z,35.54
2023-07-12T14:20:49.712Z,33.03
2023-07-12T14:23:21.613Z,33.90
2023-07-12T14:25:51.094Z,34.55
2023-07-12T14:28:17.901Z,33.77
2023-07-12T14:31:01.861Z,32.94
2023-07-12T14:33:36.987Z,32.85
2023-07-12T14:36:04.601Z,32.62
2023-07-12T14:38:33.572Z,33.51
2023-07-12T14:41:04.066Z,32.74
2023-07-12T14:43:33.338Z,33.05
2023-07-12T14:46:02.802Z,32.90
2023-07-12T14:48:32.810Z,32.68
2023-07-12T14:51:02.504Z,30.51
2023-07-12T14:53:29.146Z,30.88
2023-07-12T14:56:00.686Z,31.35
2023-07-12T14:58:27.456Z,32.15
2023-07-12T15:00:56.705Z,32.84
2023-07-12T15:03:25.013Z,31.91
2023-07-12T15:05:53.982Z,33.01
2023-07-12T15:08:29.909Z,32.14
2023-07-12T15:10:58.369Z,31.12
2023-07-12T15:13:27.610Z,31.03
2023-07-12T15:15:57.037Z,30.37
2023-07-12T15:18:25.856Z,29.69
2023-07-12T15:21:05.713Z,30.14
2023-07-12T15:23:35.882Z,28.43
2023-07-12T15:26:02.734Z,28.08
2023-07-12T15:28:33.007Z,27.04
2023-07-12T15:31:02.045Z,26.70
2023-07-12T15:33:32.149Z,26.07
2023-07-12T15:36:05.175Z,26.33
2023-07-12T15:38:32.034Z,27.26
2023-07-12T15:41:13.259Z,25.80
2023-07-12T15:43:42.691Z,25.06
2023-07-12T15:46:21.619Z,24.92
2023-07-12T15:48:50.898Z,25.48
2023-07-12T15:51:35.734Z,25.17
2023-07-12T15:54:22.520Z,25.37
2023-07-12T15:56:52.344Z,25.79
2023-07-12T15:59:21.662Z,26.85
2023-07-12T16:01:48.544Z,27.60
2023-07-12T16:04:24.115Z,27.54
2023-07-12T16:06:51.199Z,28.20
2023-07-12T16:09:20.041Z,28.33
2023-07-12T16:11:51.469Z,28.87
2023-07-12T16:14:23.452Z,28.88
2023-07-12T16:16:53.254Z,29.37
2023-07-12T16:19:23.134Z,29.79
2023-07-12T16:21:50.077Z,29.76
2023-07-12T16:24:19.710Z,30.75
2023-07-12T16:26:47.018Z,31.31
2023-07-12T16:29:14.118Z,32.05
2023-07-12T16:31:54.515Z,32.10
2023-07-12T16:34:26.470Z,32.19
2023-07-12T16:36:58.832Z,32.40
2023-07-12T16:39:26.283Z,32.79
2023-07-12T16:41:53.925Z,33.07
2023-07-12T16:44:25.344Z,33.00
2023-07-12T16:46:52.760Z,33.94
2023-07-12T16:49:22.710Z,32.91
2023-07-12T16:52:04.515Z,33.14
2023-07-12T16:54:35.662Z,33.50
2023-07-12T16:57:02.783Z,33.39
2023-07-12T16:59:32.856Z,34.22
2023-07-12T17:02:08.934Z,34.18
2023-07-12T17:04:40.197Z,34.30
2023-07-12T17:07:12.292Z,35.59
2023-07-12T17:09:38.878Z,34.97
2023-07-12T17:12:13.335Z,35.43
2023-07-12T17:14:42.050Z,35.12
2023-07-12T17:17:11.734Z,34.94
2023-07-12T17:19:38.577Z,36.07
2023-07-12T17:22:11.694Z,35.81
2023-07-12T17:24:39.107Z,35.45
2023-07-12T17:27:11.644Z,35.33
2023-07-12T17:29:40.715Z,35.46
2023-07-12T17:32:17.147Z,34.77
2023-07-12T17:34:46.007Z,35.51
2023-07-12T17:37:18.047Z,35.97
2023-07-12T17:39:58.951Z,35.55
2023-07-12T17:42:29.897Z,36.27
2023-07-12T17:45:03.010Z,35.29
2023-07-12T17:47:33.589Z,35.29
2023-07-12T17:50:05.319Z,35.31
2023-07-12T17:52:33.665Z,35.18
2023-07-12T17:55:02.917Z,35.20
2023-07-12T17:57:32.225Z,35.92
2023-07-12T17:59:59.835Z,35.47
2023-07-12T18:02:28.909Z,35.28
2023-07-12T18:04:59.935Z,36.43
2023-07-12T18:07:27.397Z,36.02
2023-07-12T18:09:56.253Z,35.76
2023-07-12T18:12:24.035Z,36.02
2023-07-12T18:14:51.741Z,36.32
2023-07-12T18:17:23.475Z,36.30
2023-07-12T18:19:53.722Z,36.58
2023-07-12T18:22:24.970Z,35.91
2023-07-12T18:24:59.778Z,36.89
2023-07-12T18:27:26.526Z,36.68
2023-07-12T18:29:56.274Z,37.28
2023-07-12T18:32:28.348Z,36.70
2023-07-12T18:34:57.877Z,37.35
2023-07-12T18:37:29.965Z,37.76
2023-07-12T18:39:56.843Z,36.78
2023-07-12T18:42:31.598Z,37.20
2023-07-12T18:44:58.285Z,37.87
2023-07-12T18:47:27.871Z,38.99
2023-07-12T18:49:57.980Z,39.52
2023-07-12T18:52:26.930Z,40.41
2023-07-12T18:54:53.579Z,39.96
2023-07-12T18:57:23.019Z,41.73
2023-07-12T18:59:54.489Z,41.76
2023-07-12T19:02:23.718Z,41.49
2023-07-12T19:04:50.421Z,41.98
2023-07-12T19:07:31.956Z,42.36
2023-07-12T19:09:58.768Z,40.37
2023-07-12T19:12:29.055Z,40.95
2023-07-12T19:15:02.568Z,41.40
2023-07-12T19:17:37.505Z,41.47
2023-07-12T19:20:04.649Z,42.13
2023-07-12T19:22:32.868Z,42.34
2023-07-12T19:24:59.706Z,42.40
2023-07-12T19:27:42.970Z,41.94
2023-07-12T19:30:15.284Z,41.86
2023-07-12T19:32:42.455Z,42.38
2023-07-12T19:35:25.672Z,42.15
2023-07-12T19:37:55.559Z,42.67
2023-07-12T19:40:25.758Z,42.82
2023-07-12T19:42:54.490Z,42.97
2023-07-12T19:45:28.593Z,43.01
2023-07-12T19:47:56.689Z,42.73
2023-07-12T19:50:26.259Z,42.28
2023-07-12T19:52:53.005Z,42.48
2023-07-12T19:55:30.616Z,42.43
2023-07-12T19:57:59.817Z,42.41
2023-07-12T20:00:31.236Z,42.40
2023-07-12T20:03:02.786Z,42.47
2023-07-12T20:05:34.359Z,42.44
2023-07-12T20:08:01.123Z,42.03
2023-07-12T20:10:27.801Z,42.04
2023-07-12T20:12:58.160Z,42.35
2023-07-12T20:15:25.060Z,42.63
2023-07-12T20:17:53.834Z,43.67
2023-07-12T20:20:25.518Z,43.11
2023-07-12T20:22:57.487Z,43.24
2023-07-12T20:25:29.134Z,42.97
2023-07-12T20:27:58.687Z,43.40
2023-07-12T20:30:28.325Z,43.51
2023-07-12T20:32:55.104Z,43.02
2023-07-12T20:35:24.664Z,44.14
2023-07-12T20:37:54.765Z,44.71
2023-07-12T20:40:21.540Z,43.58
2023-07-12T20:42:55.597Z,42.84
2023-07-12T20:45:24.838Z,43.40
2023-07-12T20:47:56.662Z,43.20
2023-07-12T20:50:28.358Z,42.91
2023-07-12T20:53:00.570Z,43.59
2023-07-12T20:55:30.425Z,45.40
2023-07-12T20:58:02.334Z,46.61
2023-07-12T21:00:48.037Z,46.86
2023-07-12T21:03:15.164Z,46.84
2023-07-12T21:05:42.005Z,46.49
2023-07-12T21:08:11.447Z,46.86
2023-07-12T21:10:40.789Z,46.96
2023-07-12T21:13:12.434Z,46.58
2023-07-12T21:15:43.464Z,47.01
2023-07-12T21:18:10.097Z,47.13
2023-07-12T21:20:38.965Z,47.11
2023-07-12T21:23:08.291Z,47.24
2023-07-12T21:25:36.984Z,47.12
2023-07-12T21:28:06.098Z,47.54
2023-07-12T21:30:36.207Z,48.08
2023-07-12T21:33:06.884Z,49.14
2023-07-12T21:35:33.630Z,49.74
2023-07-12T21:38:00.777Z,50.27
2023-07-12T21:40:27.610Z,50.44
2023-07-12T21:42:54.528Z,50.62
2023-07-12T21:45:21.445Z,50.58
2023-07-12T21:47:48.366Z,50.04
2023-07-12T21:50:17.548Z,51.20
2023-07-12T21:52:46.824Z,51.27
2023-07-12T21:55:15.782Z,51.15
2023-07-12T21:57:44.967Z,50.62
2023-07-12T22:00:21.942Z,50.66
2023-07-12T22:02:52.403Z,51.31
2023-07-12T22:05:19.272Z,51.31
2023-07-12T22:07:55.346Z,51.63
2023-07-12T22:10:28.150Z,51.80
2023-07-12T22:12:58.664Z,51.58
2023-07-12T22:15:26.782Z,52.87
2023-07-12T22:17:57.015Z,53.96
2023-07-12T22:20:24.291Z,53.76
2023-07-12T22:22:55.723Z,53.96
2023-07-12T22:25:22.873Z,53.85
2023-07-12T22:27:49.924Z,53.77
2023-07-12T22:30:27.495Z,54.07
2023-07-12T22:32:57.100Z,53.96
2023-07-12T22:35:28.895Z,54.75
2023-07-12T22:37:56.664Z,54.57
2023-07-12T22:40:24.762Z,54.96
2023-07-12T22:42:52.110Z,54.36
2023-07-12T22:45:22.685Z,56.94
2023-07-12T22:47:49.619Z,56.41
2023-07-12T22:50:19.162Z,56.79
2023-07-12T22:52:48.138Z,56.63
2023-07-12T22:55:15.176Z,56.87
2023-07-12T22:57:43.144Z,57.37
2023-07-12T23:00:16.502Z,57.28
2023-07-12T23:02:45.585Z,57.92
2023-07-12T23:05:13.545Z,57.61
2023-07-12T23:07:42.811Z,57.50
2023-07-12T23:10:14.111Z,57.37
2023-07-12T23:12:43.327Z,57.46
2023-07-12T23:15:17.116Z,58.65
2023-07-12T23:17:52.645Z,58.73
2023-07-12T23:20:21.548Z,58.41
2023-07-12T23:22:48.300Z,58.16
2023-07-12T23:25:26.348Z,59.22
2023-07-12T23:27:54.965Z,59.70
2023-07-12T23:30:25.416Z,60.52
2023-07-12T23:32:53.322Z,61.44
2023-07-12T23:35:23.732Z,62.53
2023-07-12T23:37:50.488Z,62.06
2023-07-12T23:40:17.189Z,61.79
2023-07-12T23:42:43.985Z,62.65
2023-07-12T23:45:13.402Z,62.78
2023-07-12T23:47:40.108Z,62.58
2023-07-12T23:50:07.713Z,62.14
2023-07-12T23:52:34.330Z,61.93
2023-07-12T23:55:03.981Z,63.26
2023-07-12T23:57:33.345Z,63.68
